sensor_id;sensor_type;location;lat;lon;timestamp;P1;durP1;ratioP1;P2;durP2;ratioP2
75209;SDS011;63796;53.136;14.882;2023-06-04T00:00:16;5.10;;;1.20;;
75209;SDS011;63796;53.136;14.882;2023-06-04T00:03:04;2.80;;;1.20;;
75209;SDS011;63796;53.136;14.882;2023-06-04T00:05:32;2.20;;;0.90;;
75209;SDS011;63796;53.136;14.882;2023-06-04T00:07:59;4.50;;;1.20;;
75209;SDS011;63796;53.136;14.882;2023-06-04T00:10:26;4.00;;;1.00;;
75209;SDS011;63796;53.136;14.882;2023-06-04T00:12:54;4.30;;;1.50;;
75209;SDS011;63796;53.136;14.882;2023-06-04T00:15:21;7.20;;;1.70;;
75209;SDS011;63796;53.136;14.882;2023-06-04T00:17:48;4.30;;;1.50;;
75209;SDS011;63796;53.136;14.882;2023-06-04T00:20:16;4.60;;;1.20;;
75209;SDS011;63796;53.136;14.882;2023-06-04T00:22:44;6.20;;;1.10;;
75209;SDS011;63796;53.136;14.882;2023-06-04T00:25:11;2.50;;;1.00;;
75209;SDS011;63796;53.136;14.882;2023-06-04T00:27:40;2.30;;;0.70;;
75209;SDS011;63796;53.136;14.882;2023-06-04T00:30:08;2.80;;;1.10;;
75209;SDS011;63796;53.136;14.882;2023-06-04T00:32:35;3.00;;;0.80;;
75209;SDS011;63796;53.136;14.882;2023-06-04T00:35:04;6.10;;;1.50;;
75209;SDS011;63796;53.136;14.882;2023-06-04T00:37:31;8.70;;;1.70;;
75209;SDS011;63796;53.136;14.882;2023-06-04T00:39:59;6.00;;;1.60;;
75209;SDS011;63796;53.136;14.882;2023-06-04T00:42:26;6.70;;;1.70;;
75209;SDS011;63796;53.136;14.882;2023-06-04T00:44:54;3.80;;;0.90;;
75209;SDS011;63796;53.136;14.882;2023-06-04T00:47:24;4.00;;;1.00;;
75209;SDS011;63796;53.136;14.882;2023-06-04T00:49:56;3.40;;;0.90;;
75209;SDS011;63796;53.136;14.882;2023-06-04T00:52:25;3.10;;;0.90;;
75209;SDS011;63796;53.136;14.882;2023-06-04T00:54:53;3.60;;;1.00;;
75209;SDS011;63796;53.136;14.882;2023-06-04T00:57:22;2.60;;;0.50;;
75209;SDS011;63796;53.136;14.882;2023-06-04T00:59:50;2.30;;;0.80;;
75209;SDS011;63796;53.136;14.882;2023-06-04T01:02:21;2.60;;;0.60;;
75209;SDS011;63796;53.136;14.882;2023-06-04T01:04:54;1.30;;;0.60;;
75209;SDS011;63796;53.136;14.882;2023-06-04T01:07:27;1.70;;;0.70;;
75209;SDS011;63796;53.136;14.882;2023-06-04T01:09:57;1.60;;;0.50;;
75209;SDS011;63796;53.136;14.882;2023-06-04T01:12:24;3.30;;;0.90;;
75209;SDS011;63796;53.136;14.882;2023-06-04T01:14:52;1.40;;;0.60;;
75209;SDS011;63796;53.136;14.882;2023-06-04T01:17:23;2.60;;;0.80;;
75209;SDS011;63796;53.136;14.882;2023-06-04T01:20:13;1.80;;;0.90;;
75209;SDS011;63796;53.136;14.882;2023-06-04T01:22:44;2.00;;;0.50;;
75209;SDS011;63796;53.136;14.882;2023-06-04T01:25:39;2.80;;;0.70;;
75209;SDS011;63796;53.136;14.882;2023-06-04T01:28:08;3.20;;;0.70;;
75209;SDS011;63796;53.136;14.882;2023-06-04T01:30:40;3.20;;;0.70;;
75209;SDS011;63796;53.136;14.882;2023-06-04T01:33:15;1.40;;;0.60;;
75209;SDS011;63796;53.136;14.882;2023-06-04T01:35:43;1.20;;;0.60;;
75209;SDS011;63796;53.136;14.882;2023-06-04T01:38:11;1.70;;;0.60;;
75209;SDS011;63796;53.136;14.882;2023-06-04T01:40:38;1.60;;;0.50;;
75209;SDS011;63796;53.136;14.882;2023-06-04T01:43:06;1.70;;;0.70;;
75209;SDS011;63796;53.136;14.882;2023-06-04T01:45:34;2.40;;;0.60;;
75209;SDS011;63796;53.136;14.882;2023-06-04T01:48:03;1.20;;;0.40;;
75209;SDS011;63796;53.136;14.882;2023-06-04T01:50:31;2.00;;;0.60;;
75209;SDS011;63796;53.136;14.882;2023-06-04T01:52:59;5.00;;;0.70;;
75209;SDS011;63796;53.136;14.882;2023-06-04T01:55:26;1.30;;;0.30;;
75209;SDS011;63796;53.136;14.882;2023-06-04T01:57:56;1.60;;;0.60;;
75209;SDS011;63796;53.136;14.882;2023-06-04T02:00:23;1.70;;;0.40;;
75209;SDS011;63796;53.136;14.882;2023-06-04T02:02:50;4.90;;;0.60;;
75209;SDS011;63796;53.136;14.882;2023-06-04T02:05:18;3.20;;;0.80;;
75209;SDS011;63796;53.136;14.882;2023-06-04T02:07:46;1.50;;;0.50;;
75209;SDS011;63796;53.136;14.882;2023-06-04T02:10:18;4.00;;;0.50;;
75209;SDS011;63796;53.136;14.882;2023-06-04T02:13:00;0.90;;;0.50;;
75209;SDS011;63796;53.136;14.882;2023-06-04T02:15:30;1.30;;;0.40;;
75209;SDS011;63796;53.136;14.882;2023-06-04T02:18:10;1.80;;;1.00;;
75209;SDS011;63796;53.136;14.882;2023-06-04T02:20:40;0.60;;;0.30;;
75209;SDS011;63796;53.136;14.882;2023-06-04T02:23:07;4.20;;;0.60;;
75209;SDS011;63796;53.136;14.882;2023-06-04T02:25:35;1.90;;;0.70;;
75209;SDS011;63796;53.136;14.882;2023-06-04T02:28:02;1.50;;;0.70;;
75209;SDS011;63796;53.136;14.882;2023-06-04T02:30:30;3.70;;;1.00;;
75209;SDS011;63796;53.136;14.882;2023-06-04T02:32:57;2.60;;;0.80;;
75209;SDS011;63796;53.136;14.882;2023-06-04T02:35:28;1.60;;;0.80;;
75209;SDS011;63796;53.136;14.882;2023-06-04T02:37:56;4.30;;;1.40;;
75209;SDS011;63796;53.136;14.882;2023-06-04T02:40:25;3.20;;;0.90;;
75209;SDS011;63796;53.136;14.882;2023-06-04T02:42:53;3.90;;;1.20;;
75209;SDS011;63796;53.136;14.882;2023-06-04T02:45:21;4.00;;;0.70;;
75209;SDS011;63796;53.136;14.882;2023-06-04T02:47:49;2.10;;;0.70;;
75209;SDS011;63796;53.136;14.882;2023-06-04T02:50:16;2.10;;;0.80;;
75209;SDS011;63796;53.136;14.882;2023-06-04T02:52:44;2.00;;;0.70;;
75209;SDS011;63796;53.136;14.882;2023-06-04T02:55:11;2.50;;;0.90;;
75209;SDS011;63796;53.136;14.882;2023-06-04T02:57:42;2.80;;;0.70;;
75209;SDS011;63796;53.136;14.882;2023-06-04T03:00:12;1.90;;;0.80;;
75209;SDS011;63796;53.136;14.882;2023-06-04T03:05:09;2.40;;;0.40;;
75209;SDS011;63796;53.136;14.882;2023-06-04T03:07:41;2.20;;;0.70;;
75209;SDS011;63796;53.136;14.882;2023-06-04T03:10:11;5.40;;;0.90;;
75209;SDS011;63796;53.136;14.882;2023-06-04T03:12:39;3.80;;;0.70;;
75209;SDS011;63796;53.136;14.882;2023-06-04T03:15:07;2.00;;;0.70;;
75209;SDS011;63796;53.136;14.882;2023-06-04T03:17:34;2.80;;;0.80;;
75209;SDS011;63796;53.136;14.882;2023-06-04T03:20:02;3.50;;;0.60;;
75209;SDS011;63796;53.136;14.882;2023-06-04T03:22:31;2.60;;;0.80;;
75209;SDS011;63796;53.136;14.882;2023-06-04T03:25:01;4.00;;;0.80;;
75209;SDS011;63796;53.136;14.882;2023-06-04T03:27:31;2.90;;;1.00;;
75209;SDS011;63796;53.136;14.882;2023-06-04T03:29:59;1.90;;;1.20;;
75209;SDS011;63796;53.136;14.882;2023-06-04T03:32:26;3.00;;;1.90;;
75209;SDS011;63796;53.136;14.882;2023-06-04T03:34:54;4.30;;;1.10;;
75209;SDS011;63796;53.136;14.882;2023-06-04T03:37:21;3.80;;;1.00;;
75209;SDS011;63796;53.136;14.882;2023-06-04T03:39:48;4.00;;;1.30;;
75209;SDS011;63796;53.136;14.882;2023-06-04T03:42:16;2.20;;;0.90;;
75209;SDS011;63796;53.136;14.882;2023-06-04T03:44:43;2.20;;;0.90;;
75209;SDS011;63796;53.136;14.882;2023-06-04T03:47:11;2.00;;;0.80;;
75209;SDS011;63796;53.136;14.882;2023-06-04T03:49:38;3.00;;;0.70;;
75209;SDS011;63796;53.136;14.882;2023-06-04T03:52:06;3.00;;;1.10;;
75209;SDS011;63796;53.136;14.882;2023-06-04T03:54:33;4.70;;;1.20;;
75209;SDS011;63796;53.136;14.882;2023-06-04T03:57:00;4.00;;;1.00;;
75209;SDS011;63796;53.136;14.882;2023-06-04T03:59:29;3.50;;;1.50;;
75209;SDS011;63796;53.136;14.882;2023-06-04T04:01:56;5.50;;;1.40;;
75209;SDS011;63796;53.136;14.882;2023-06-04T04:04:23;4.30;;;1.20;;
75209;SDS011;63796;53.136;14.882;2023-06-04T04:06:51;5.10;;;1.70;;
75209;SDS011;63796;53.136;14.882;2023-06-04T04:09:18;5.20;;;1.50;;
75209;SDS011;63796;53.136;14.882;2023-06-04T04:11:45;2.50;;;1.40;;
75209;SDS011;63796;53.136;14.882;2023-06-04T04:14:13;3.10;;;1.60;;
75209;SDS011;63796;53.136;14.882;2023-06-04T04:16:40;7.30;;;1.40;;
75209;SDS011;63796;53.136;14.882;2023-06-04T04:19:07;5.90;;;2.00;;
75209;SDS011;63796;53.136;14.882;2023-06-04T04:21:36;5.10;;;2.20;;
75209;SDS011;63796;53.136;14.882;2023-06-04T04:24:04;7.80;;;2.30;;
75209;SDS011;63796;53.136;14.882;2023-06-04T04:26:31;5.20;;;1.50;;
75209;SDS011;63796;53.136;14.882;2023-06-04T04:28:59;7.60;;;1.90;;
75209;SDS011;63796;53.136;14.882;2023-06-04T04:31:27;8.00;;;2.40;;
75209;SDS011;63796;53.136;14.882;2023-06-04T04:33:55;3.80;;;2.00;;
75209;SDS011;63796;53.136;14.882;2023-06-04T04:36:23;3.10;;;1.90;;
75209;SDS011;63796;53.136;14.882;2023-06-04T04:38:51;5.10;;;1.80;;
75209;SDS011;63796;53.136;14.882;2023-06-04T04:41:22;9.70;;;1.70;;
75209;SDS011;63796;53.136;14.882;2023-06-04T04:43:52;3.80;;;1.90;;
75209;SDS011;63796;53.136;14.882;2023-06-04T04:46:20;9.20;;;1.80;;
75209;SDS011;63796;53.136;14.882;2023-06-04T04:48:47;4.70;;;1.30;;
75209;SDS011;63796;53.136;14.882;2023-06-04T04:51:15;2.10;;;1.40;;
75209;SDS011;63796;53.136;14.882;2023-06-04T04:53:42;2.50;;;1.30;;
75209;SDS011;63796;53.136;14.882;2023-06-04T04:56:09;3.40;;;1.40;;
75209;SDS011;63796;53.136;14.882;2023-06-04T04:58:37;3.90;;;1.40;;
75209;SDS011;63796;53.136;14.882;2023-06-04T05:01:04;3.00;;;1.30;;
75209;SDS011;63796;53.136;14.882;2023-06-04T05:03:32;2.30;;;1.20;;
75209;SDS011;63796;53.136;14.882;2023-06-04T05:05:59;5.00;;;1.20;;
75209;SDS011;63796;53.136;14.882;2023-06-04T05:08:27;3.60;;;1.00;;
75209;SDS011;63796;53.136;14.882;2023-06-04T05:10:54;3.60;;;1.50;;
75209;SDS011;63796;53.136;14.882;2023-06-04T05:13:22;1.80;;;1.20;;
75209;SDS011;63796;53.136;14.882;2023-06-04T05:15:50;5.30;;;0.90;;
75209;SDS011;63796;53.136;14.882;2023-06-04T05:18:20;5.90;;;1.30;;
75209;SDS011;63796;53.136;14.882;2023-06-04T05:20:56;2.20;;;0.90;;
75209;SDS011;63796;53.136;14.882;2023-06-04T05:23:26;2.00;;;0.90;;
75209;SDS011;63796;53.136;14.882;2023-06-04T05:25:53;3.50;;;0.70;;
75209;SDS011;63796;53.136;14.882;2023-06-04T05:28:21;3.20;;;1.30;;
75209;SDS011;63796;53.136;14.882;2023-06-04T05:30:52;3.30;;;0.80;;
75209;SDS011;63796;53.136;14.882;2023-06-04T05:33:20;3.20;;;1.10;;
75209;SDS011;63796;53.136;14.882;2023-06-04T05:35:47;3.10;;;1.80;;
75209;SDS011;63796;53.136;14.882;2023-06-04T05:38:27;4.10;;;1.10;;
75209;SDS011;63796;53.136;14.882;2023-06-04T05:40:58;2.40;;;0.70;;
75209;SDS011;63796;53.136;14.882;2023-06-04T05:43:25;6.40;;;2.10;;
75209;SDS011;63796;53.136;14.882;2023-06-04T05:45:52;3.60;;;1.20;;
75209;SDS011;63796;53.136;14.882;2023-06-04T05:48:20;2.20;;;0.90;;
75209;SDS011;63796;53.136;14.882;2023-06-04T05:50:47;1.60;;;1.10;;
75209;SDS011;63796;53.136;14.882;2023-06-04T05:53:14;2.80;;;1.10;;
75209;SDS011;63796;53.136;14.882;2023-06-04T05:55:42;1.70;;;1.20;;
75209;SDS011;63796;53.136;14.882;2023-06-04T05:58:09;4.50;;;1.30;;
75209;SDS011;63796;53.136;14.882;2023-06-04T06:00:37;1.40;;;1.10;;
75209;SDS011;63796;53.136;14.882;2023-06-04T06:03:04;3.30;;;1.20;;
75209;SDS011;63796;53.136;14.882;2023-06-04T06:05:33;2.00;;;1.10;;
75209;SDS011;63796;53.136;14.882;2023-06-04T06:08:01;4.30;;;1.00;;
75209;SDS011;63796;53.136;14.882;2023-06-04T06:10:29;3.60;;;1.20;;
75209;SDS011;63796;53.136;14.882;2023-06-04T06:12:56;3.10;;;2.00;;
75209;SDS011;63796;53.136;14.882;2023-06-04T06:15:24;4.20;;;2.30;;
75209;SDS011;63796;53.136;14.882;2023-06-04T06:17:51;3.20;;;1.60;;
75209;SDS011;63796;53.136;14.882;2023-06-04T06:20:19;4.10;;;1.40;;
75209;SDS011;63796;53.136;14.882;2023-06-04T06:22:46;4.00;;;1.60;;
75209;SDS011;63796;53.136;14.882;2023-06-04T06:25:14;3.90;;;1.60;;
75209;SDS011;63796;53.136;14.882;2023-06-04T06:27:43;4.60;;;1.70;;
75209;SDS011;63796;53.136;14.882;2023-06-04T06:30:10;2.70;;;1.80;;
75209;SDS011;63796;53.136;14.882;2023-06-04T06:32:39;3.20;;;1.90;;
75209;SDS011;63796;53.136;14.882;2023-06-04T06:35:07;2.90;;;1.90;;
75209;SDS011;63796;53.136;14.882;2023-06-04T06:37:34;4.30;;;2.30;;
75209;SDS011;63796;53.136;14.882;2023-06-04T06:40:02;3.20;;;1.80;;
75209;SDS011;63796;53.136;14.882;2023-06-04T06:42:33;2.50;;;2.00;;
75209;SDS011;63796;53.136;14.882;2023-06-04T06:45:01;4.60;;;2.50;;
75209;SDS011;63796;53.136;14.882;2023-06-04T06:47:28;2.50;;;2.20;;
75209;SDS011;63796;53.136;14.882;2023-06-04T06:49:56;3.90;;;2.40;;
75209;SDS011;63796;53.136;14.882;2023-06-04T06:52:23;3.00;;;2.70;;
75209;SDS011;63796;53.136;14.882;2023-06-04T06:54:50;3.60;;;2.10;;
75209;SDS011;63796;53.136;14.882;2023-06-04T06:57:17;2.60;;;2.10;;
75209;SDS011;63796;53.136;14.882;2023-06-04T06:59:45;2.90;;;2.20;;
75209;SDS011;63796;53.136;14.882;2023-06-04T07:02:12;3.20;;;2.20;;
75209;SDS011;63796;53.136;14.882;2023-06-04T07:04:39;4.30;;;2.00;;
75209;SDS011;63796;53.136;14.882;2023-06-04T07:07:07;3.10;;;2.60;;
75209;SDS011;63796;53.136;14.882;2023-06-04T07:09:35;2.90;;;2.60;;
75209;SDS011;63796;53.136;14.882;2023-06-04T07:12:02;3.50;;;3.20;;
75209;SDS011;63796;53.136;14.882;2023-06-04T07:14:30;3.90;;;2.70;;
75209;SDS011;63796;53.136;14.882;2023-06-04T07:16:57;3.10;;;2.50;;
75209;SDS011;63796;53.136;14.882;2023-06-04T07:19:25;3.60;;;2.20;;
75209;SDS011;63796;53.136;14.882;2023-06-04T07:21:54;3.20;;;2.60;;
75209;SDS011;63796;53.136;14.882;2023-06-04T07:24:21;2.50;;;2.30;;
75209;SDS011;63796;53.136;14.882;2023-06-04T07:26:49;2.60;;;2.30;;
75209;SDS011;63796;53.136;14.882;2023-06-04T07:29:16;2.90;;;2.60;;
75209;SDS011;63796;53.136;14.882;2023-06-04T07:31:44;3.90;;;2.60;;
75209;SDS011;63796;53.136;14.882;2023-06-04T07:34:11;2.80;;;2.60;;
75209;SDS011;63796;53.136;14.882;2023-06-04T07:36:39;3.00;;;2.90;;
75209;SDS011;63796;53.136;14.882;2023-06-04T07:39:07;3.50;;;3.20;;
75209;SDS011;63796;53.136;14.882;2023-06-04T07:41:34;3.30;;;3.10;;
75209;SDS011;63796;53.136;14.882;2023-06-04T07:44:01;5.40;;;3.00;;
75209;SDS011;63796;53.136;14.882;2023-06-04T07:46:28;4.00;;;3.70;;
75209;SDS011;63796;53.136;14.882;2023-06-04T07:48:56;3.80;;;3.60;;
75209;SDS011;63796;53.136;14.882;2023-06-04T07:51:23;4.70;;;4.40;;
75209;SDS011;63796;53.136;14.882;2023-06-04T07:53:50;5.60;;;5.20;;
75209;SDS011;63796;53.136;14.882;2023-06-04T07:56:18;7.00;;;5.60;;
75209;SDS011;63796;53.136;14.882;2023-06-04T07:58:45;4.80;;;4.40;;
75209;SDS011;63796;53.136;14.882;2023-06-04T08:01:14;4.30;;;3.90;;
75209;SDS011;63796;53.136;14.882;2023-06-04T08:03:42;5.70;;;5.20;;
75209;SDS011;63796;53.136;14.882;2023-06-04T08:06:10;6.50;;;6.00;;
75209;SDS011;63796;53.136;14.882;2023-06-04T08:08:37;4.80;;;4.50;;
75209;SDS011;63796;53.136;14.882;2023-06-04T08:11:05;5.10;;;4.80;;
75209;SDS011;63796;53.136;14.882;2023-06-04T08:13:32;5.60;;;5.20;;
75209;SDS011;63796;53.136;14.882;2023-06-04T08:15:59;5.50;;;5.30;;
75209;SDS011;63796;53.136;14.882;2023-06-04T08:18:27;5.70;;;5.20;;
75209;SDS011;63796;53.136;14.882;2023-06-04T08:20:54;6.00;;;5.60;;
75209;SDS011;63796;53.136;14.882;2023-06-04T08:23:22;6.00;;;5.50;;
75209;SDS011;63796;53.136;14.882;2023-06-04T08:25:49;7.30;;;6.80;;
75209;SDS011;63796;53.136;14.882;2023-06-04T08:28:17;7.40;;;7.00;;
75209;SDS011;63796;53.136;14.882;2023-06-04T08:30:46;7.00;;;6.40;;
75209;SDS011;63796;53.136;14.882;2023-06-04T08:33:13;6.80;;;6.30;;
75209;SDS011;63796;53.136;14.882;2023-06-04T08:35:40;7.00;;;6.40;;
75209;SDS011;63796;53.136;14.882;2023-06-04T08:38:08;8.00;;;7.50;;
75209;SDS011;63796;53.136;14.882;2023-06-04T08:40:35;7.80;;;7.40;;
75209;SDS011;63796;53.136;14.882;2023-06-04T08:43:04;7.70;;;6.90;;
75209;SDS011;63796;53.136;14.882;2023-06-04T08:45:33;7.50;;;7.10;;
75209;SDS011;63796;53.136;14.882;2023-06-04T08:48:09;7.80;;;7.40;;
75209;SDS011;63796;53.136;14.882;2023-06-04T08:50:39;8.70;;;8.00;;
75209;SDS011;63796;53.136;14.882;2023-06-04T08:53:11;8.40;;;7.70;;
75209;SDS011;63796;53.136;14.882;2023-06-04T08:55:38;8.50;;;8.00;;
75209;SDS011;63796;53.136;14.882;2023-06-04T08:58:06;8.60;;;7.60;;
75209;SDS011;63796;53.136;14.882;2023-06-04T09:00:35;8.90;;;8.30;;
75209;SDS011;63796;53.136;14.882;2023-06-04T09:03:02;8.60;;;8.10;;
75209;SDS011;63796;53.136;14.882;2023-06-04T09:05:30;9.50;;;8.80;;
75209;SDS011;63796;53.136;14.882;2023-06-04T09:08:01;9.30;;;8.60;;
75209;SDS011;63796;53.136;14.882;2023-06-04T09:10:32;9.50;;;9.00;;
75209;SDS011;63796;53.136;14.882;2023-06-04T09:13:01;9.30;;;8.80;;
75209;SDS011;63796;53.136;14.882;2023-06-04T09:15:30;10.10;;;9.40;;
75209;SDS011;63796;53.136;14.882;2023-06-04T09:17:57;8.70;;;8.20;;
75209;SDS011;63796;53.136;14.882;2023-06-04T09:20:27;8.60;;;8.10;;
75209;SDS011;63796;53.136;14.882;2023-06-04T09:22:54;8.20;;;7.70;;
75209;SDS011;63796;53.136;14.882;2023-06-04T09:25:23;8.00;;;7.40;;
75209;SDS011;63796;53.136;14.882;2023-06-04T09:27:56;7.80;;;7.20;;
75209;SDS011;63796;53.136;14.882;2023-06-04T09:30:24;7.80;;;7.40;;
75209;SDS011;63796;53.136;14.882;2023-06-04T09:32:52;7.30;;;6.80;;
75209;SDS011;63796;53.136;14.882;2023-06-04T09:35:20;7.60;;;7.10;;
75209;SDS011;63796;53.136;14.882;2023-06-04T09:37:52;7.70;;;7.20;;
75209;SDS011;63796;53.136;14.882;2023-06-04T09:40:20;7.40;;;6.90;;
75209;SDS011;63796;53.136;14.882;2023-06-04T09:42:49;8.10;;;7.70;;
75209;SDS011;63796;53.136;14.882;2023-06-04T09:45:34;9.10;;;8.20;;
75209;SDS011;63796;53.136;14.882;2023-06-04T09:48:03;8.10;;;7.70;;
75209;SDS011;63796;53.136;14.882;2023-06-04T09:50:36;8.50;;;7.90;;
75209;SDS011;63796;53.136;14.882;2023-06-04T09:53:17;9.00;;;8.60;;
75209;SDS011;63796;53.136;14.882;2023-06-04T09:55:56;9.60;;;9.10;;
75209;SDS011;63796;53.136;14.882;2023-06-04T09:58:25;8.80;;;8.20;;
75209;SDS011;63796;53.136;14.882;2023-06-04T10:00:57;8.90;;;8.30;;
75209;SDS011;63796;53.136;14.882;2023-06-04T10:03:25;8.60;;;8.00;;
75209;SDS011;63796;53.136;14.882;2023-06-04T10:05:58;10.20;;;9.50;;
75209;SDS011;63796;53.136;14.882;2023-06-04T10:08:29;10.10;;;9.50;;
75209;SDS011;63796;53.136;14.882;2023-06-04T10:11:02;8.50;;;7.90;;
75209;SDS011;63796;53.136;14.882;2023-06-04T10:13:34;8.30;;;7.90;;
75209;SDS011;63796;53.136;14.882;2023-06-04T10:16:03;9.20;;;8.60;;
75209;SDS011;63796;53.136;14.882;2023-06-04T10:18:31;10.20;;;9.60;;
75209;SDS011;63796;53.136;14.882;2023-06-04T10:20:59;11.00;;;10.50;;
75209;SDS011;63796;53.136;14.882;2023-06-04T10:23:27;9.00;;;8.30;;
75209;SDS011;63796;53.136;14.882;2023-06-04T10:25:56;9.30;;;8.80;;
75209;SDS011;63796;53.136;14.882;2023-06-04T10:28:24;7.80;;;7.40;;
75209;SDS011;63796;53.136;14.882;2023-06-04T10:30:51;8.30;;;7.70;;
75209;SDS011;63796;53.136;14.882;2023-06-04T10:33:19;7.70;;;7.20;;
75209;SDS011;63796;53.136;14.882;2023-06-04T10:35:47;6.80;;;6.40;;
75209;SDS011;63796;53.136;14.882;2023-06-04T10:38:14;6.20;;;5.60;;
75209;SDS011;63796;53.136;14.882;2023-06-04T10:40:43;6.50;;;6.10;;
75209;SDS011;63796;53.136;14.882;2023-06-04T10:43:12;6.30;;;5.80;;
75209;SDS011;63796;53.136;14.882;2023-06-04T10:45:40;6.40;;;5.80;;
75209;SDS011;63796;53.136;14.882;2023-06-04T10:48:12;5.20;;;4.90;;
75209;SDS011;63796;53.136;14.882;2023-06-04T10:50:51;4.60;;;4.40;;
75209;SDS011;63796;53.136;14.882;2023-06-04T10:53:19;5.30;;;4.80;;
75209;SDS011;63796;53.136;14.882;2023-06-04T10:55:49;4.70;;;4.40;;
75209;SDS011;63796;53.136;14.882;2023-06-04T10:58:16;4.80;;;4.50;;
75209;SDS011;63796;53.136;14.882;2023-06-04T11:00:46;6.70;;;6.10;;
75209;SDS011;63796;53.136;14.882;2023-06-04T11:03:16;4.10;;;3.80;;
75209;SDS011;63796;53.136;14.882;2023-06-04T11:05:47;3.70;;;3.50;;
75209;SDS011;63796;53.136;14.882;2023-06-04T11:08:26;3.70;;;3.50;;
75209;SDS011;63796;53.136;14.882;2023-06-04T11:10:55;4.10;;;3.80;;
75209;SDS011;63796;53.136;14.882;2023-06-04T11:13:25;5.40;;;3.50;;
75209;SDS011;63796;53.136;14.882;2023-06-04T11:15:53;3.10;;;2.90;;
75209;SDS011;63796;53.136;14.882;2023-06-04T11:18:22;3.40;;;2.80;;
75209;SDS011;63796;53.136;14.882;2023-06-04T11:20:59;2.80;;;2.70;;
75209;SDS011;63796;53.136;14.882;2023-06-04T11:23:27;2.60;;;2.50;;
75209;SDS011;63796;53.136;14.882;2023-06-04T11:25:55;3.20;;;2.30;;
75209;SDS011;63796;53.136;14.882;2023-06-04T11:28:22;2.70;;;2.10;;
75209;SDS011;63796;53.136;14.882;2023-06-04T11:31:00;2.00;;;1.90;;
75209;SDS011;63796;53.136;14.882;2023-06-04T11:33:46;2.00;;;1.90;;
75209;SDS011;63796;53.136;14.882;2023-06-04T11:36:27;2.50;;;1.90;;
75209;SDS011;63796;53.136;14.882;2023-06-04T11:41:27;3.10;;;1.90;;
75209;SDS011;63796;53.136;14.882;2023-06-04T11:43:55;3.50;;;1.70;;
75209;SDS011;63796;53.136;14.882;2023-06-04T11:46:23;3.10;;;1.50;;
75209;SDS011;63796;53.136;14.882;2023-06-04T11:48:51;5.10;;;2.10;;
75209;SDS011;63796;53.136;14.882;2023-06-04T11:51:20;3.10;;;1.70;;
75209;SDS011;63796;53.136;14.882;2023-06-04T11:53:50;1.40;;;1.20;;
75209;SDS011;63796;53.136;14.882;2023-06-04T11:56:18;1.10;;;1.00;;
75209;SDS011;63796;53.136;14.882;2023-06-04T11:58:45;1.80;;;0.90;;
75209;SDS011;63796;53.136;14.882;2023-06-04T12:01:13;3.30;;;1.60;;
75209;SDS011;63796;53.136;14.882;2023-06-04T12:03:42;2.50;;;0.80;;
75209;SDS011;63796;53.136;14.882;2023-06-04T12:06:17;2.30;;;0.80;;
75209;SDS011;63796;53.136;14.882;2023-06-04T12:08:54;1.60;;;0.90;;
75209;SDS011;63796;53.136;14.882;2023-06-04T12:13:55;9.80;;;8.80;;
75209;SDS011;63796;53.136;14.882;2023-06-04T12:16:23;4.00;;;1.00;;
75209;SDS011;63796;53.136;14.882;2023-06-04T12:18:51;2.10;;;0.50;;
75209;SDS011;63796;53.136;14.882;2023-06-04T12:21:24;3.10;;;1.00;;
75209;SDS011;63796;53.136;14.882;2023-06-04T12:24:12;2.00;;;0.90;;
75209;SDS011;63796;53.136;14.882;2023-06-04T12:26:42;4.00;;;0.90;;
75209;SDS011;63796;53.136;14.882;2023-06-04T12:29:16;1.20;;;0.50;;
75209;SDS011;63796;53.136;14.882;2023-06-04T12:31:45;1.60;;;0.70;;
75209;SDS011;63796;53.136;14.882;2023-06-04T12:34:14;0.70;;;0.60;;
75209;SDS011;63796;53.136;14.882;2023-06-04T12:36:41;2.10;;;0.80;;
75209;SDS011;63796;53.136;14.882;2023-06-04T12:39:10;1.00;;;0.60;;
75209;SDS011;63796;53.136;14.882;2023-06-04T12:41:45;4.60;;;0.70;;
75209;SDS011;63796;53.136;14.882;2023-06-04T12:44:12;2.10;;;0.70;;
75209;SDS011;63796;53.136;14.882;2023-06-04T12:46:40;1.80;;;0.80;;
75209;SDS011;63796;53.136;14.882;2023-06-04T12:49:07;3.80;;;1.10;;
75209;SDS011;63796;53.136;14.882;2023-06-04T12:51:35;1.30;;;0.90;;
75209;SDS011;63796;53.136;14.882;2023-06-04T12:54:03;3.30;;;2.10;;
75209;SDS011;63796;53.136;14.882;2023-06-04T12:56:31;24.90;;;3.50;;
75209;SDS011;63796;53.136;14.882;2023-06-04T12:58:59;5.60;;;1.10;;
75209;SDS011;63796;53.136;14.882;2023-06-04T13:01:26;2.00;;;0.60;;
75209;SDS011;63796;53.136;14.882;2023-06-04T13:03:54;2.30;;;0.70;;
75209;SDS011;63796;53.136;14.882;2023-06-04T13:06:22;1.60;;;0.50;;
75209;SDS011;63796;53.136;14.882;2023-06-04T13:08:50;2.30;;;0.50;;
75209;SDS011;63796;53.136;14.882;2023-06-04T13:11:17;6.20;;;1.40;;
75209;SDS011;63796;53.136;14.882;2023-06-04T13:13:44;3.10;;;0.70;;
75209;SDS011;63796;53.136;14.882;2023-06-04T13:16:12;1.30;;;0.60;;
75209;SDS011;63796;53.136;14.882;2023-06-04T13:18:39;1.30;;;0.40;;
75209;SDS011;63796;53.136;14.882;2023-06-04T13:21:07;1.40;;;0.30;;
75209;SDS011;63796;53.136;14.882;2023-06-04T13:23:34;2.40;;;1.50;;
75209;SDS011;63796;53.136;14.882;2023-06-04T13:26:17;3.30;;;0.80;;
75209;SDS011;63796;53.136;14.882;2023-06-04T13:28:44;2.20;;;0.60;;
75209;SDS011;63796;53.136;14.882;2023-06-04T13:31:12;2.10;;;0.60;;
75209;SDS011;63796;53.136;14.882;2023-06-04T13:33:39;3.50;;;1.10;;
75209;SDS011;63796;53.136;14.882;2023-06-04T13:36:06;2.00;;;0.50;;
75209;SDS011;63796;53.136;14.882;2023-06-04T13:38:34;1.80;;;0.30;;
75209;SDS011;63796;53.136;14.882;2023-06-04T13:41:01;1.30;;;0.70;;
75209;SDS011;63796;53.136;14.882;2023-06-04T13:43:28;2.10;;;0.30;;
75209;SDS011;63796;53.136;14.882;2023-06-04T13:45:56;1.80;;;0.80;;
75209;SDS011;63796;53.136;14.882;2023-06-04T13:48:23;0.90;;;0.40;;
75209;SDS011;63796;53.136;14.882;2023-06-04T13:50:51;1.50;;;0.40;;
75209;SDS011;63796;53.136;14.882;2023-06-04T13:53:18;1.20;;;0.70;;
75209;SDS011;63796;53.136;14.882;2023-06-04T13:55:45;1.10;;;0.40;;
75209;SDS011;63796;53.136;14.882;2023-06-04T13:58:13;1.20;;;0.30;;
75209;SDS011;63796;53.136;14.882;2023-06-04T14:00:42;1.80;;;0.60;;
75209;SDS011;63796;53.136;14.882;2023-06-04T14:03:10;2.20;;;0.50;;
75209;SDS011;63796;53.136;14.882;2023-06-04T14:05:38;7.70;;;5.40;;
75209;SDS011;63796;53.136;14.882;2023-06-04T14:08:05;3.30;;;2.50;;
75209;SDS011;63796;53.136;14.882;2023-06-04T14:10:32;1.30;;;0.80;;
75209;SDS011;63796;53.136;14.882;2023-06-04T14:12:59;2.50;;;1.50;;
75209;SDS011;63796;53.136;14.882;2023-06-04T14:15:28;0.80;;;0.70;;
75209;SDS011;63796;53.136;14.882;2023-06-04T14:17:55;2.40;;;0.80;;
75209;SDS011;63796;53.136;14.882;2023-06-04T14:20:23;1.70;;;0.70;;
75209;SDS011;63796;53.136;14.882;2023-06-04T14:22:50;4.10;;;0.80;;
75209;SDS011;63796;53.136;14.882;2023-06-04T14:25:17;1.30;;;0.50;;
75209;SDS011;63796;53.136;14.882;2023-06-04T14:27:45;2.20;;;0.90;;
75209;SDS011;63796;53.136;14.882;2023-06-04T14:30:12;2.10;;;0.30;;
75209;SDS011;63796;53.136;14.882;2023-06-04T14:32:40;1.90;;;0.10;;
75209;SDS011;63796;53.136;14.882;2023-06-04T14:35:07;2.90;;;0.80;;
75209;SDS011;63796;53.136;14.882;2023-06-04T14:37:35;0.50;;;0.30;;
75209;SDS011;63796;53.136;14.882;2023-06-04T14:40:02;0.70;;;0.50;;
75209;SDS011;63796;53.136;14.882;2023-06-04T14:46:08;1.70;;;0.40;;
75209;SDS011;63796;53.136;14.882;2023-06-04T14:48:35;2.90;;;0.30;;
75209;SDS011;63796;53.136;14.882;2023-06-04T14:51:02;8.40;;;6.20;;
75209;SDS011;63796;53.136;14.882;2023-06-04T14:53:30;3.90;;;0.60;;